createdAt,value
2023-01-19T00:00:31.799Z,94.93
2023-01-19T00:03:35.312Z,94.83
2023-01-19T00:06:37.644Z,94.89
2023-01-19T00:09:40.260Z,94.80
2023-01-19T00:12:42.730Z,94.77
2023-01-19T00:15:45.882Z,94.40
2023-01-19T00:18:50.443Z,94.49
2023-01-19T00:21:53.159Z,94.28
2023-01-19T00:24:55.623Z,94.52
2023-01-19T00:28:00.603Z,94.51
2023-01-19T00:31:04.191Z,94.33
2023-01-19T00:34:07.646Z,94.17
2023-01-19T00:37:10.352Z,94.20
2023-01-19T00:40:14.169Z,94.15
2023-01-19T00:43:16.618Z,94.06
2023-01-19T00:46:19.384Z,94.09
2023-01-19T00:49:21.857Z,93.82
2023-01-19T00:52:24.517Z,93.92
2023-01-19T00:55:28.701Z,93.80
2023-01-19T00:58:31.377Z,93.69
2023-01-19T01:01:44.979Z,93.63
2023-01-19T01:04:54.777Z,93.62
2023-01-19T01:07:57.440Z,93.75
2023-01-19T01:11:00.799Z,93.90
2023-01-19T01:14:03.117Z,93.63
2023-01-19T01:17:06.164Z,93.63
2023-01-19T01:20:09.272Z,93.31
2023-01-19T01:23:12.460Z,93.27
2023-01-19T01:26:14.889Z,93.53
2023-01-19T01:29:17.511Z,93.63
2023-01-19T01:32:19.896Z,93.12
2023-01-19T01:35:22.550Z,93.29
2023-01-19T01:38:24.951Z,93.21
2023-01-19T01:41:27.792Z,93.09
2023-01-19T01:44:51.464Z,93.02
2023-01-19T01:47:57.802Z,93.04
2023-01-19T01:51:27.288Z,93.04
2023-01-19T01:54:33.582Z,93.05
2023-01-19T01:57:39.491Z,93.04
2023-01-19T02:01:01.498Z,92.88
2023-01-19T02:04:04.311Z,92.90
2023-01-19T02:07:25.471Z,92.40
2023-01-19T02:10:47.028Z,92.28
2023-01-19T02:13:50.790Z,92.26
2023-01-19T02:16:53.663Z,92.69
2023-01-19T02:19:56.304Z,92.59
2023-01-19T02:23:05.145Z,92.78
2023-01-19T02:26:10.175Z,93.01
2023-01-19T02:29:19.474Z,93.14
2023-01-19T02:32:21.956Z,92.98
2023-01-19T02:35:25.382Z,93.02
2023-01-19T02:38:29.068Z,93.03
2023-01-19T02:41:38.910Z,92.74
2023-01-19T02:44:45.488Z,92.44
2023-01-19T02:47:53.208Z,92.21
2023-01-19T02:51:04.445Z,92.24
2023-01-19T02:54:13.233Z,91.94
2023-01-19T02:57:49.989Z,91.56
2023-01-19T03:01:09.843Z,91.41
2023-01-19T03:04:31.599Z,91.40
2023-01-19T03:07:59.178Z,91.00
2023-01-19T03:11:11.178Z,91.10
2023-01-19T03:14:21.204Z,90.81
2023-01-19T03:17:24.944Z,90.81
2023-01-19T03:20:29.058Z,91.21
2023-01-19T03:23:34.782Z,90.94
2023-01-19T03:26:44.107Z,90.95
2023-01-19T03:29:54.153Z,90.75
2023-01-19T03:33:05.189Z,90.26
2023-01-19T03:36:15.428Z,90.45
2023-01-19T03:39:24.555Z,90.30
2023-01-19T03:42:28.485Z,89.96
2023-01-19T03:45:34.299Z,90.10
2023-01-19T03:48:37.859Z,90.37
2023-01-19T03:51:40.633Z,90.11
2023-01-19T03:54:43.553Z,90.74
2023-01-19T03:57:46.156Z,90.57
2023-01-19T04:00:48.637Z,90.46
2023-01-19T04:03:52.850Z,90.87
2023-01-19T04:06:55.271Z,90.66
2023-01-19T04:09:57.864Z,90.52
2023-01-19T04:13:02.258Z,90.13
2023-01-19T04:16:05.849Z,90.21
2023-01-19T04:19:09.816Z,90.44
2023-01-19T04:22:13.195Z,90.33
2023-01-19T04:25:15.916Z,89.49
2023-01-19T04:28:18.562Z,88.68
2023-01-19T04:31:21.053Z,88.48
2023-01-19T04:34:23.764Z,88.84
2023-01-19T04:37:26.168Z,88.79
2023-01-19T04:40:28.831Z,88.60
2023-01-19T04:43:31.388Z,88.40
2023-01-19T04:46:34.096Z,88.42
2023-01-19T04:49:37.786Z,88.54
2023-01-19T04:52:40.514Z,88.50
2023-01-19T04:55:42.878Z,88.32
2023-01-19T04:58:45.629Z,88.00
2023-01-19T05:01:47.988Z,87.59
2023-01-19T05:04:51.024Z,87.89
2023-01-19T05:07:53.338Z,87.93
2023-01-19T05:10:57.600Z,87.94
2023-01-19T05:13:59.986Z,87.86
2023-01-19T05:17:03.291Z,87.80
2023-01-19T05:20:06.529Z,88.36
2023-01-19T05:23:09.169Z,88.38
2023-01-19T05:26:11.824Z,88.34
2023-01-19T05:29:14.790Z,88.70
2023-01-19T05:32:17.275Z,87.89
2023-01-19T05:35:27.762Z,86.84
2023-01-19T05:38:35.954Z,86.99
2023-01-19T05:41:39.152Z,87.13
2023-01-19T05:44:41.828Z,86.97
2023-01-19T05:47:45.006Z,87.35
2023-01-19T05:50:52.820Z,87.11
2023-01-19T05:53:55.679Z,87.20
2023-01-19T05:56:58.288Z,86.75
2023-01-19T06:00:00.966Z,86.29
2023-01-19T06:03:04.160Z,86.12
2023-01-19T06:06:08.521Z,85.83
2023-01-19T06:09:11.381Z,85.14
2023-01-19T06:12:14.246Z,85.07
2023-01-19T06:15:16.683Z,85.09
2023-01-19T06:18:19.406Z,85.49
2023-01-19T06:21:22.768Z,86.16
2023-01-19T06:24:26.024Z,86.11
2023-01-19T06:27:28.610Z,86.46
2023-01-19T06:30:31.491Z,86.83
2023-01-19T06:33:34.181Z,87.02
2023-01-19T06:36:37.241Z,86.60
2023-01-19T06:39:41.116Z,86.79
2023-01-19T06:42:43.794Z,85.81
2023-01-19T06:45:46.625Z,86.25
2023-01-19T06:48:49.348Z,86.25
2023-01-19T06:51:51.769Z,87.41
2023-01-19T06:54:54.642Z,85.24
2023-01-19T06:57:59.967Z,85.67
2023-01-19T07:01:07.675Z,85.99
2023-01-19T07:04:14.015Z,85.77
2023-01-19T07:07:16.954Z,85.65
2023-01-19T07:10:19.438Z,85.70
2023-01-19T07:13:22.273Z,85.95
2023-01-19T07:16:25.635Z,85.74
2023-01-19T07:19:30.077Z,86.44
2023-01-19T07:22:32.708Z,86.30
2023-01-19T07:25:39.583Z,85.71
2023-01-19T07:28:43.455Z,85.99
2023-01-19T07:31:48.970Z,85.94
2023-01-19T07:34:51.586Z,86.19
2023-01-19T07:37:57.055Z,85.67
2023-01-19T07:41:04.699Z,85.66
2023-01-19T07:44:08.763Z,85.15
2023-01-19T07:47:12.729Z,84.94
2023-01-19T07:50:21.466Z,84.54
2023-01-19T07:53:23.885Z,84.67
2023-01-19T07:56:27.965Z,84.30
2023-01-19T07:59:32.404Z,84.62
2023-01-19T08:02:36.080Z,84.34
2023-01-19T08:05:38.871Z,84.13
2023-01-19T08:08:41.607Z,84.43
2023-01-19T08:11:44.398Z,84.06
2023-01-19T08:14:46.731Z,83.62
2023-01-19T08:18:11.667Z,84.11
2023-01-19T08:21:14.064Z,84.19
2023-01-19T08:24:22.832Z,83.85
2023-01-19T08:27:25.473Z,84.30
2023-01-19T08:30:28.482Z,84.41
2023-01-19T08:33:30.906Z,84.15
2023-01-19T08:36:34.050Z,84.28
2023-01-19T08:39:36.514Z,84.04
2023-01-19T08:42:39.305Z,84.35
2023-01-19T08:45:48.820Z,83.81
2023-01-19T08:48:51.635Z,83.66
2023-01-19T08:51:54.111Z,84.25
2023-01-19T08:54:57.053Z,84.48
2023-01-19T08:58:04.337Z,84.45
2023-01-19T09:01:08.777Z,85.12
2023-01-19T09:04:11.324Z,84.97
2023-01-19T09:07:14.129Z,85.44
2023-01-19T09:10:17.949Z,84.84
2023-01-19T09:13:20.887Z,84.76
2023-01-19T09:16:23.364Z,84.98
2023-01-19T09:19:26.256Z,85.64
2023-01-19T09:22:29.816Z,85.30
2023-01-19T09:25:35.404Z,85.57
2023-01-19T09:28:38.076Z,85.68
2023-01-19T09:31:41.147Z,85.69
2023-01-19T09:34:43.951Z,85.58
2023-01-19T09:37:47.592Z,85.39
2023-01-19T09:40:53.653Z,85.91
2023-01-19T09:44:01.041Z,85.78
2023-01-19T09:47:13.145Z,85.93
2023-01-19T09:50:38.298Z,86.72
2023-01-19T09:53:46.690Z,86.24
2023-01-19T09:56:52.392Z,86.44
2023-01-19T09:59:59.866Z,86.36
2023-01-19T10:03:24.170Z,85.99
2023-01-19T10:06:27.504Z,86.40
2023-01-19T10:09:46.571Z,87.11
2023-01-19T10:12:52.413Z,87.07
2023-01-19T10:16:21.312Z,86.55
2023-01-19T10:19:30.498Z,87.19
2023-01-19T10:22:33.380Z,86.61
2023-01-19T10:25:36.323Z,86.57
2023-01-19T10:28:39.931Z,86.84
2023-01-19T10:31:45.971Z,86.91
2023-01-19T10:34:49.938Z,87.09
2023-01-19T10:38:02.779Z,87.23
2023-01-19T10:41:15.736Z,87.31
2023-01-19T10:44:27.893Z,87.41
2023-01-19T10:47:36.414Z,87.28
2023-01-19T10:50:42.385Z,87.81
2023-01-19T10:53:57.098Z,87.95
2023-01-19T10:57:05.371Z,87.99
2023-01-19T11:00:38.552Z,88.44
2023-01-19T11:03:41.678Z,87.40
2023-01-19T11:06:45.188Z,87.81
2023-01-19T11:09:49.507Z,88.13
2023-01-19T11:13:12.908Z,87.68
2023-01-19T11:16:38.891Z,87.92
2023-01-19T11:19:41.556Z,88.22
2023-01-19T11:22:44.333Z,87.80
2023-01-19T11:25:50.214Z,87.76
2023-01-19T11:28:56.059Z,88.22
2023-01-19T11:32:20.593Z,87.77
2023-01-19T11:35:36.388Z,88.49
2023-01-19T11:38:44.073Z,88.00
2023-01-19T11:41:51.117Z,88.32
2023-01-19T11:45:12.615Z,87.86
2023-01-19T11:48:36.663Z,87.84
2023-01-19T11:52:14.673Z,87.16
2023-01-19T11:55:41.920Z,86.95
2023-01-19T11:58:48.262Z,87.01
2023-01-19T12:02:00.724Z,86.98
2023-01-19T12:05:08.680Z,86.96
2023-01-19T12:08:21.045Z,86.65
2023-01-19T12:11:31.669Z,86.61
2023-01-19T12:14:34.009Z,86.68
2023-01-19T12:17:50.329Z,86.97
2023-01-19T12:20:54.769Z,86.43
2023-01-19T12:24:00.147Z,86.63
2023-01-19T12:27:12.861Z,87.04
2023-01-19T12:30:25.445Z,86.91
2023-01-19T12:33:37.542Z,87.27
2023-01-19T12:36:40.750Z,86.71
2023-01-19T12:39:49.113Z,86.12
2023-01-19T12:43:04.852Z,86.51
2023-01-19T12:46:28.981Z,86.23
2023-01-19T12:49:42.974Z,86.69
2023-01-19T12:52:57.158Z,86.39
2023-01-19T12:56:10.134Z,86.11
2023-01-19T12:59:25.749Z,86.41
2023-01-19T13:02:28.685Z,86.26
2023-01-19T13:05:40.140Z,86.18
2023-01-19T13:08:59.447Z,86.41
2023-01-19T13:12:14.227Z,86.29
2023-01-19T13:15:33.702Z,86.25
2023-01-19T13:18:41.713Z,85.94
2023-01-19T13:21:45.768Z,85.81
2023-01-19T13:25:11.278Z,85.66
2023-01-19T13:28:17.056Z,86.33
2023-01-19T13:31:20.106Z,85.84
2023-01-19T13:34:25.313Z,85.75
2023-01-19T13:37:37.247Z,86.22
2023-01-19T13:40:40.731Z,85.33
2023-01-19T13:43:46.589Z,85.79
2023-01-19T13:46:51.691Z,85.78
2023-01-19T13:49:58.325Z,86.22
2023-01-19T13:53:01.599Z,86.26
2023-01-19T13:56:20.923Z,86.10
2023-01-19T13:59:24.005Z,86.17
2023-01-19T14:02:26.620Z,86.02
2023-01-19T14:05:37.917Z,86.15
2023-01-19T14:08:40.658Z,86.42
2023-01-19T14:11:45.795Z,86.43
2023-01-19T14:14:48.456Z,86.31
2023-01-19T14:18:08.725Z,86.40
2023-01-19T14:21:20.688Z,86.58
2023-01-19T14:24:24.290Z,86.34
2023-01-19T14:27:26.669Z,85.42
2023-01-19T14:30:29.454Z,85.80
2023-01-19T14:33:44.635Z,85.77
2023-01-19T14:36:51.772Z,85.38
2023-01-19T14:40:13.279Z,85.86
2023-01-19T14:43:16.700Z,85.45
2023-01-19T14:46:20.683Z,85.20
2023-01-19T14:49:36.723Z,84.98
2023-01-19T14:52:42.428Z,85.13
2023-01-19T14:55:49.941Z,85.38
2023-01-19T14:58:52.681Z,84.90
2023-01-19T15:01:55.638Z,85.69
2023-01-19T15:04:58.120Z,85.23
2023-01-19T15:08:02.941Z,85.26
2023-01-19T15:11:30.953Z,84.97
2023-01-19T15:14:35.481Z,84.95
2023-01-19T15:17:37.884Z,84.81
2023-01-19T15:20:41.560Z,84.79
2023-01-19T15:23:44.013Z,85.31
2023-01-19T15:26:46.897Z,84.91
2023-01-19T15:29:49.392Z,85.20
2023-01-19T15:32:52.161Z,85.48
2023-01-19T15:35:54.654Z,85.73
2023-01-19T15:38:58.808Z,85.13
2023-01-19T15:42:02.468Z,85.40
2023-01-19T15:45:35.782Z,85.20
2023-01-19T15:48:38.238Z,85.50
2023-01-19T15:51:42.328Z,85.65
2023-01-19T15:54:45.198Z,85.43
2023-01-19T15:57:48.679Z,85.64
2023-01-19T16:00:58.028Z,85.45
2023-01-19T16:04:07.961Z,85.54
2023-01-19T16:07:10.435Z,85.82
2023-01-19T16:10:16.869Z,85.96
2023-01-19T16:13:19.199Z,86.12
2023-01-19T16:16:24.295Z,85.95
2023-01-19T16:19:26.638Z,86.17
2023-01-19T16:22:29.545Z,86.36
2023-01-19T16:25:32.002Z,86.20
2023-01-19T16:28:36.432Z,86.12
2023-01-19T16:31:40.962Z,85.88
2023-01-19T16:34:43.787Z,85.66
2023-01-19T16:37:50.440Z,85.77
2023-01-19T16:40:53.216Z,85.21
2023-01-19T16:43:57.797Z,85.58
2023-01-19T16:47:00.624Z,85.30
2023-01-19T16:50:03.203Z,85.05
2023-01-19T16:53:07.185Z,84.49
2023-01-19T16:56:12.709Z,84.45
2023-01-19T16:59:17.193Z,84.69
2023-01-19T17:02:19.679Z,84.70
2023-01-19T17:05:22.743Z,84.62
2023-01-19T17:08:25.171Z,83.91
2023-01-19T17:11:30.499Z,83.62
2023-01-19T17:14:33.472Z,83.68
2023-01-19T17:17:36.797Z,83.79
2023-01-19T17:20:39.229Z,83.88
2023-01-19T17:23:42.905Z,82.87
2023-01-19T17:26:48.628Z,83.47
2023-01-19T17:29:51.467Z,83.95
2023-01-19T17:32:54.010Z,83.05
2023-01-19T17:36:02.779Z,83.46
2023-01-19T17:39:08.312Z,83.48
2023-01-19T17:42:10.984Z,83.56
2023-01-19T17:45:13.548Z,83.23
2023-01-19T17:48:17.579Z,83.82
2023-01-19T17:51:20.214Z,82.94
2023-01-19T17:54:23.004Z,83.82
2023-01-19T17:57:25.416Z,83.64
2023-01-19T18:00:29.148Z,83.77
2023-01-19T18:03:31.847Z,83.60
2023-01-19T18:06:34.228Z,83.53
2023-01-19T18:09:36.976Z,83.34
2023-01-19T18:12:39.666Z,83.60
2023-01-19T18:15:42.352Z,84.16
2023-01-19T18:18:44.909Z,83.69
2023-01-19T18:21:48.450Z,83.68
2023-01-19T18:24:51.003Z,83.84
2023-01-19T18:27:53.595Z,83.94
2023-01-19T18:30:56.159Z,84.01
2023-01-19T18:33:59.030Z,83.99
2023-01-19T18:37:01.551Z,83.75
2023-01-19T18:40:04.790Z,83.58
2023-01-19T18:43:09.065Z,83.54
2023-01-19T18:46:12.122Z,83.91
2023-01-19T18:49:14.726Z,84.55
2023-01-19T18:52:17.393Z,84.21
2023-01-19T18:55:20.093Z,84.40
2023-01-19T18:58:23.306Z,84.74
2023-01-19T19:01:29.753Z,84.04
2023-01-19T19:04:34.293Z,84.17
2023-01-19T19:07:37.724Z,83.65
2023-01-19T19:10:41.859Z,84.02
2023-01-19T19:13:44.808Z,84.68
2023-01-19T19:16:47.644Z,84.25
2023-01-19T19:19:49.994Z,83.70
2023-01-19T19:22:52.733Z,83.97
2023-01-19T19:25:55.134Z,83.59
2023-01-19T19:28:57.850Z,83.62
2023-01-19T19:32:00.256Z,84.41
2023-01-19T19:35:03.209Z,84.33
2023-01-19T19:38:05.599Z,84.47
2023-01-19T19:41:10.367Z,84.43
2023-01-19T19:44:12.968Z,84.82
2023-01-19T19:47:15.854Z,84.45
2023-01-19T19:50:18.548Z,83.97
2023-01-19T19:53:22.486Z,84.07
2023-01-19T19:56:28.017Z,84.65
2023-01-19T19:59:30.673Z,83.91
2023-01-19T20:02:33.079Z,84.05
2023-01-19T20:05:36.156Z,84.54
2023-01-19T20:08:38.567Z,84.53
2023-01-19T20:11:42.863Z,83.92
2023-01-19T20:14:45.231Z,84.21
2023-01-19T20:17:47.882Z,84.15
2023-01-19T20:20:50.330Z,84.42
2023-01-19T20:23:54.324Z,84.60
2023-01-19T20:26:57.250Z,84.53
2023-01-19T20:30:00.536Z,84.17
2023-01-19T20:33:03.131Z,84.58
2023-01-19T20:36:06.326Z,84.41
2023-01-19T20:39:10.410Z,84.23
2023-01-19T20:42:15.672Z,84.23
2023-01-19T20:45:18.793Z,84.24
2023-01-19T20:48:21.455Z,84.09
2023-01-19T20:51:25.771Z,84.01
2023-01-19T20:54:30.505Z,83.62
2023-01-19T20:57:32.863Z,83.49
2023-01-19T21:00:35.708Z,83.90
2023-01-19T21:03:38.205Z,83.56
2023-01-19T21:06:41.665Z,84.33
2023-01-19T21:09:44.114Z,84.77
2023-01-19T21:12:46.831Z,84.46
2023-01-19T21:15:49.388Z,84.31
2023-01-19T21:18:52.794Z,84.18
2023-01-19T21:21:55.375Z,85.12
2023-01-19T21:24:58.075Z,84.49
2023-01-19T21:28:00.465Z,84.62
2023-01-19T21:31:14.128Z,84.09
2023-01-19T21:34:16.826Z,84.39
2023-01-19T21:37:19.454Z,84.64
2023-01-19T21:40:21.895Z,84.52
2023-01-19T21:43:26.502Z,84.95
2023-01-19T21:46:29.604Z,84.77
2023-01-19T21:49:32.414Z,84.78
2023-01-19T21:52:34.757Z,84.24
2023-01-19T21:55:38.556Z,83.93
2023-01-19T21:58:40.973Z,83.74
2023-01-19T22:01:45.553Z,83.76
2023-01-19T22:04:48.325Z,83.18
2023-01-19T22:08:00.286Z,83.71
2023-01-19T22:11:09.278Z,83.68
2023-01-19T22:14:11.702Z,83.77
2023-01-19T22:17:14.391Z,83.92
2023-01-19T22:20:17.198Z,83.84
2023-01-19T22:23:19.934Z,83.57
2023-01-19T22:26:23.299Z,83.34
2023-01-19T22:29:25.936Z,83.55
2023-01-19T22:32:28.405Z,83.09
2023-01-19T22:35:31.025Z,83.68
2023-01-19T22:38:33.358Z,83.50
2023-01-19T22:41:46.036Z,83.88
2023-01-19T22:44:48.386Z,83.96
2023-01-19T22:47:51.123Z,84.13
2023-01-19T22:50:56.338Z,84.19
2023-01-19T22:53:59.509Z,84.35
2023-01-19T22:57:03.067Z,84.29
2023-01-19T23:00:09.450Z,84.16
2023-01-19T23:03:11.947Z,84.06
2023-01-19T23:06:19.785Z,84.16
2023-01-19T23:09:22.159Z,83.87
2023-01-19T23:12:24.827Z,83.85
2023-01-19T23:15:27.210Z,83.50
2023-01-19T23:18:30.089Z,83.87
2023-01-19T23:21:32.687Z,83.13
2023-01-19T23:24:35.390Z,83.67
2023-01-19T23:27:38.058Z,83.62
2023-01-19T23:30:42.601Z,83.60
2023-01-19T23:33:56.146Z,83.61
2023-01-19T23:36:58.847Z,83.41
2023-01-19T23:40:01.150Z,83.68
2023-01-19T23:43:04.213Z,83.65
2023-01-19T23:46:08.890Z,83.39
2023-01-19T23:49:12.546Z,83.95
2023-01-19T23:52:14.932Z,84.11
2023-01-19T23:55:17.853Z,84.21
2023-01-19T23:58:20.177Z,84.37
